Terminal Aerodrome Forecast
Issued by NWS Paducah, KY

Home | Current Version | Previous Version | Text Only | Print | Product List | Glossary Off
Versions: 1 2 3 4 5 6 7 8 9 10 11 12 13

000
FTUS43 KPAH 171120
TAFPAH
TAF
KPAH 171120Z 1712/1812 VRB03KT P6SM SCT250
     FM171800 17005KT P6SM BKN250
     FM180000 VRB02KT P6SM SCT250
     FM180600 00000KT P6SM SKC=

USA.gov is the U.S. government's official web portal to all federal, state and local government web resources and services.